This is the latest recevied weather packets stored in our database for station/object WB4E-13. If no packets are shown the sender has not sent any weather packets the latest 10 day(s).
| Time | Temp. | Humidity | Pressure | Rain* | Wind** | Luminosity | Snow |
|---|---|---|---|---|---|---|---|
| 1777470849 | 20° C | 84% | 1009.2 hPa | 0 mm | - | - | - |
| 1777470761 | 20° C | 84% | 1009.2 hPa | 0 mm | - | - | - |
| 1777470438 | 19.44° C | 84% | 1009.3 hPa | 0 mm | - | - | - |
| 1777470331 | 19.44° C | 84% | 1009.3 hPa | 0 mm | - | - | - |
| 1777470235 | 18.89° C | 85% | 1009.8 hPa | 0 mm | - | - | - |
| 1777470161 | 19.44° C | 84% | 1009.3 hPa | 0 mm | - | - | - |
| 1777469607 | 18.89° C | 85% | 1009.7 hPa | 0 mm | - | - | - |
| 1777469561 | 18.89° C | 85% | 1009.7 hPa | 0 mm | - | - | - |
| 1777469025 | 18.89° C | 85% | 1009.8 hPa | 0 mm | - | - | - |
| 1777468961 | 18.89° C | 85% | 1009.8 hPa | 0 mm | - | - | - |
| 1777468360 | 19.44° C | 85% | 1009.8 hPa | 0 mm | - | - | - |
| 1777467805 | 19.44° C | 86% | 1010 hPa | 0 mm | - | - | - |
| 1777467760 | 19.44° C | 86% | 1010 hPa | 0 mm | - | - | - |
| 1777467161 | 18.89° C | 87% | 1009.9 hPa | 0 mm | - | - | - |
| 1777466560 | 18.33° C | 87% | 1009.7 hPa | 0 mm | - | - | - |
| 1777465960 | 18.33° C | 87% | 1009.4 hPa | 0 mm | - | - | - |
| 1777465360 | 18.33° C | 87% | 1009.4 hPa | 0 mm | - | - | - |
| 1777464760 | 18.33° C | 87% | 1009.4 hPa | 0 mm | - | - | - |
| 1777464160 | 18.33° C | 86% | 1009.3 hPa | 0 mm | - | - | - |
| 1777463559 | 18.33° C | 86% | 1009.3 hPa | 0 mm | - | - | - |
| 1777462960 | 18.33° C | 86% | 1009.2 hPa | 0 mm | - | - | - |
| 1777462359 | 18.89° C | 85% | 1009 hPa | 0 mm | - | - | - |
| 1777461759 | 18.89° C | 84% | 1008.8 hPa | 0 mm | - | - | - |
| 1777461159 | 18.89° C | 84% | 1008.7 hPa | 0 mm | - | - | - |
| 1777460559 | 18.89° C | 84% | 1008.7 hPa | 0 mm | - | - | - |
* Rain latest hour (hover to see other rain measurements)
** Current wind speed in m/s (hover to see current wind gust speed)